sensor_id;sensor_type;location;lat;lon;timestamp;pressure;altitude;pressure_sealevel;temperature;humidity
44127;BME280;29786;50.798;7.302;2023-05-23T00:01:42;99250;;;14.82;100
44127;BME280;29786;50.798;7.302;2023-05-23T00:06:39;99260;;;14.7;100
44127;BME280;29786;50.798;7.302;2023-05-23T00:11:35;99260;;;14.57;100
44127;BME280;29786;50.798;7.302;2023-05-23T00:16:32;99270;;;14.55;100
44127;BME280;29786;50.798;7.302;2023-05-23T00:21:28;99280;;;14.53;100
44127;BME280;29786;50.798;7.302;2023-05-23T00:27:39;99290;;;14.42;100
44127;BME280;29786;50.798;7.302;2023-05-23T00:32:35;99290;;;14.36;100
44127;BME280;29786;50.798;7.302;2023-05-23T00:37:32;99290;;;14.28;100
44127;BME280;29786;50.798;7.302;2023-05-23T00:43:43;99290;;;14.19;100
44127;BME280;29786;50.798;7.302;2023-05-23T00:48:39;99290;;;14.18;100
44127;BME280;29786;50.798;7.302;2023-05-23T00:53:36;99290;;;14.04;100
44127;BME280;29786;50.798;7.302;2023-05-23T00:58:32;99290;;;13.99;100
44127;BME280;29786;50.798;7.302;2023-05-23T01:03:29;99290;;;13.93;100
44127;BME280;29786;50.798;7.302;2023-05-23T01:09:39;99300;;;13.76;100
44127;BME280;29786;50.798;7.302;2023-05-23T01:14:41;99270;;;13.56;100
44127;BME280;29786;50.798;7.302;2023-05-23T01:20:06;99290;;;13.66;100
44127;BME280;29786;50.798;7.302;2023-05-23T01:24:31;99290;;;13.56;100
44127;BME280;29786;50.798;7.302;2023-05-23T01:30:40;99300;;;13.61;100
44127;BME280;29786;50.798;7.302;2023-05-23T01:35:36;99280;;;13.41;100
44127;BME280;29786;50.798;7.302;2023-05-23T01:40:33;99300;;;13.62;100
44127;BME280;29786;50.798;7.302;2023-05-23T01:45:29;99300;;;13.75;100
44127;BME280;29786;50.798;7.302;2023-05-23T01:51:40;99300;;;13.96;100
44127;BME280;29786;50.798;7.302;2023-05-23T01:56:37;99280;;;13.97;100
44127;BME280;29786;50.798;7.302;2023-05-23T02:01:33;99290;;;14.18;100
44127;BME280;29786;50.798;7.302;2023-05-23T02:06:29;99300;;;14.2;100
44127;BME280;29786;50.798;7.302;2023-05-23T02:12:40;99300;;;14.17;100
44127;BME280;29786;50.798;7.302;2023-05-23T02:22:34;99320;;;14.24;100
44127;BME280;29786;50.798;7.302;2023-05-23T02:27:30;99320;;;14.23;100
44127;BME280;29786;50.798;7.302;2023-05-23T02:33:40;99330;;;14.19;100
44127;BME280;29786;50.798;7.302;2023-05-23T02:38:37;99330;;;14.09;100
44127;BME280;29786;50.798;7.302;2023-05-23T02:43:34;99330;;;14.04;100
44127;BME280;29786;50.798;7.302;2023-05-23T02:54:41;99340;;;13.95;100
44127;BME280;29786;50.798;7.302;2023-05-23T02:59:37;99340;;;13.99;100
44127;BME280;29786;50.798;7.302;2023-05-23T03:04:34;99340;;;13.99;100
44127;BME280;29786;50.798;7.302;2023-05-23T03:09:30;99340;;;14.03;100
44127;BME280;29786;50.798;7.302;2023-05-23T03:15:41;99350;;;14.07;100
44127;BME280;29786;50.798;7.302;2023-05-23T03:20:38;99350;;;14.13;100
44127;BME280;29786;50.798;7.302;2023-05-23T03:25:34;99350;;;14.07;100
44127;BME280;29786;50.798;7.302;2023-05-23T03:30:31;99350;;;14.07;100
44127;BME280;29786;50.798;7.302;2023-05-23T03:36:41;99360;;;14.1;100
44127;BME280;29786;50.798;7.302;2023-05-23T03:41:38;99360;;;14.11;100
44127;BME280;29786;50.798;7.302;2023-05-23T03:46:34;99360;;;14.09;100
44127;BME280;29786;50.798;7.302;2023-05-23T03:51:31;99370;;;14.07;100
44127;BME280;29786;50.798;7.302;2023-05-23T03:57:41;99370;;;14.04;100
44127;BME280;29786;50.798;7.302;2023-05-23T04:02:38;99380;;;13.97;100
44127;BME280;29786;50.798;7.302;2023-05-23T04:07:35;99380;;;13.93;100
44127;BME280;29786;50.798;7.302;2023-05-23T04:12:31;99380;;;13.8;100
44127;BME280;29786;50.798;7.302;2023-05-23T04:18:42;99380;;;13.63;100
44127;BME280;29786;50.798;7.302;2023-05-23T04:23:38;99380;;;13.56;100
44127;BME280;29786;50.798;7.302;2023-05-23T04:28:35;99380;;;13.52;100
44127;BME280;29786;50.798;7.302;2023-05-23T04:33:31;99390;;;13.43;100
44127;BME280;29786;50.798;7.302;2023-05-23T04:39:42;99390;;;13.42;100
44127;BME280;29786;50.798;7.302;2023-05-23T04:44:39;99390;;;13.29;100
44127;BME280;29786;50.798;7.302;2023-05-23T04:49:36;99390;;;13.23;100
44127;BME280;29786;50.798;7.302;2023-05-23T04:54:32;99390;;;13.1;100
44127;BME280;29786;50.798;7.302;2023-05-23T05:00:42;99400;;;13.12;100
44127;BME280;29786;50.798;7.302;2023-05-23T05:05:39;99400;;;13.19;100
44127;BME280;29786;50.798;7.302;2023-05-23T05:10:37;99400;;;13.19;100
44127;BME280;29786;50.798;7.302;2023-05-23T05:15:32;99400;;;13.26;100
44127;BME280;29786;50.798;7.302;2023-05-23T05:21:43;99410;;;13.27;100
44127;BME280;29786;50.798;7.302;2023-05-23T05:26:39;99410;;;13.26;100
44127;BME280;29786;50.798;7.302;2023-05-23T05:31:36;99410;;;13.28;100
44127;BME280;29786;50.798;7.302;2023-05-23T05:36:32;99420;;;13.32;100
44127;BME280;29786;50.798;7.302;2023-05-23T05:42:43;99420;;;13.29;100
44127;BME280;29786;50.798;7.302;2023-05-23T05:47:39;99430;;;13.31;100
44127;BME280;29786;50.798;7.302;2023-05-23T05:52:36;99410;;;13.15;100
44127;BME280;29786;50.798;7.302;2023-05-23T05:57:32;99440;;;13.38;100
44127;BME280;29786;50.798;7.302;2023-05-23T06:03:43;99440;;;13.32;100
44127;BME280;29786;50.798;7.302;2023-05-23T06:08:40;99440;;;13.38;100
44127;BME280;29786;50.798;7.302;2023-05-23T06:13:36;99430;;;13.25;100
44127;BME280;29786;50.798;7.302;2023-05-23T06:18:33;99440;;;13.38;100
44127;BME280;29786;50.798;7.302;2023-05-23T06:24:44;99450;;;13.32;100
44127;BME280;29786;50.798;7.302;2023-05-23T06:29:40;99450;;;13.31;100
44127;BME280;29786;50.798;7.302;2023-05-23T06:34:37;99430;;;13.26;100
44127;BME280;29786;50.798;7.302;2023-05-23T06:39:33;99450;;;13.44;100
44127;BME280;29786;50.798;7.302;2023-05-23T06:44:30;99460;;;13.55;100
44127;BME280;29786;50.798;7.302;2023-05-23T06:50:40;99460;;;13.52;100
44127;BME280;29786;50.798;7.302;2023-05-23T07:00:33;99460;;;13.4;100
44127;BME280;29786;50.798;7.302;2023-05-23T07:05:30;99460;;;13.33;100
44127;BME280;29786;50.798;7.302;2023-05-23T07:11:40;99470;;;13.39;100
44127;BME280;29786;50.798;7.302;2023-05-23T07:16:37;99480;;;13.49;100
44127;BME280;29786;50.798;7.302;2023-05-23T07:21:34;99480;;;13.42;100
44127;BME280;29786;50.798;7.302;2023-05-23T07:32:41;99490;;;13.55;100
44127;BME280;29786;50.798;7.302;2023-05-23T07:37:37;99490;;;13.5;100
44127;BME280;29786;50.798;7.302;2023-05-23T07:42:34;99490;;;13.85;100
44127;BME280;29786;50.798;7.302;2023-05-23T07:47:30;99490;;;13.73;100
44127;BME280;29786;50.798;7.302;2023-05-23T07:53:41;99490;;;13.61;100
44127;BME280;29786;50.798;7.302;2023-05-23T07:58:37;99490;;;13.64;100
44127;BME280;29786;50.798;7.302;2023-05-23T08:03:34;99500;;;13.75;100
44127;BME280;29786;50.798;7.302;2023-05-23T08:08:30;99510;;;13.61;100
44127;BME280;29786;50.798;7.302;2023-05-23T08:14:41;99510;;;13.64;100
44127;BME280;29786;50.798;7.302;2023-05-23T08:19:38;99520;;;13.74;100
44127;BME280;29786;50.798;7.302;2023-05-23T08:24:34;99520;;;13.86;100
44127;BME280;29786;50.798;7.302;2023-05-23T08:29:31;99520;;;13.95;100
44127;BME280;29786;50.798;7.302;2023-05-23T08:35:41;99530;;;13.84;100
44127;BME280;29786;50.798;7.302;2023-05-23T08:40:38;99530;;;13.81;100
44127;BME280;29786;50.798;7.302;2023-05-23T08:45:35;99540;;;13.76;100
44127;BME280;29786;50.798;7.302;2023-05-23T08:56:42;99550;;;13.92;100
44127;BME280;29786;50.798;7.302;2023-05-23T09:01:38;99550;;;14.03;100
44127;BME280;29786;50.798;7.302;2023-05-23T09:06:35;99560;;;14.36;100
44127;BME280;29786;50.798;7.302;2023-05-23T09:11:31;99560;;;14.45;100
44127;BME280;29786;50.798;7.302;2023-05-23T09:17:43;99560;;;14.78;100
44127;BME280;29786;50.798;7.302;2023-05-23T09:22:39;99570;;;15.04;100
44127;BME280;29786;50.798;7.302;2023-05-23T09:27:35;99580;;;14.8;100
44127;BME280;29786;50.798;7.302;2023-05-23T09:32:32;99570;;;14.51;100
44127;BME280;29786;50.798;7.302;2023-05-23T09:38:43;99560;;;14.37;100
44127;BME280;29786;50.798;7.302;2023-05-23T09:43:39;99570;;;14.59;100
44127;BME280;29786;50.798;7.302;2023-05-23T09:48:36;99580;;;15.08;100
44127;BME280;29786;50.798;7.302;2023-05-23T09:53:32;99580;;;15.21;100
44127;BME280;29786;50.798;7.302;2023-05-23T09:59:44;99580;;;15.11;100
44127;BME280;29786;50.798;7.302;2023-05-23T10:04:39;99580;;;15.62;100
44127;BME280;29786;50.798;7.302;2023-05-23T10:09:36;99570;;;15.36;100
44127;BME280;29786;50.798;7.302;2023-05-23T10:14:32;99590;;;15.5;100
44127;BME280;29786;50.798;7.302;2023-05-23T10:20:46;99600;;;15.13;100
44127;BME280;29786;50.798;7.302;2023-05-23T10:25:39;99590;;;14.62;100
44127;BME280;29786;50.798;7.302;2023-05-23T10:30:36;99570;;;14.31;100
44127;BME280;29786;50.798;7.302;2023-05-23T10:35:41;99600;;;14.19;100
44127;BME280;29786;50.798;7.302;2023-05-23T10:41:45;99610;;;13.93;100
44127;BME280;29786;50.798;7.302;2023-05-23T10:45:41;99610;;;14.1;100
44127;BME280;29786;50.798;7.302;2023-05-23T10:50:31;99610;;;14.24;100
44127;BME280;29786;50.798;7.302;2023-05-23T10:56:41;99610;;;14.05;100
44127;BME280;29786;50.798;7.302;2023-05-23T11:01:38;99630;;;14.04;100
44127;BME280;29786;50.798;7.302;2023-05-23T11:06:42;99630;;;13.91;100
44127;BME280;29786;50.798;7.302;2023-05-23T11:12:03;99630;;;13.89;100
44127;BME280;29786;50.798;7.302;2023-05-23T11:17:57;99640;;;14.68;100
44127;BME280;29786;50.798;7.302;2023-05-23T11:22:38;99640;;;14.86;100
44127;BME280;29786;50.798;7.302;2023-05-23T11:27:35;99640;;;16.28;100
44127;BME280;29786;50.798;7.302;2023-05-23T11:32:31;99630;;;17.54;100
44127;BME280;29786;50.798;7.302;2023-05-23T11:38:41;99640;;;16.45;100
44127;BME280;29786;50.798;7.302;2023-05-23T11:43:47;99640;;;16.35;100
44127;BME280;29786;50.798;7.302;2023-05-23T11:48:35;99630;;;16.64;100
44127;BME280;29786;50.798;7.302;2023-05-23T11:59:43;99630;;;17.54;92.7
44127;BME280;29786;50.798;7.302;2023-05-23T12:04:38;99630;;;17.92;97.08
44127;BME280;29786;50.798;7.302;2023-05-23T12:09:42;99650;;;16.51;100
44127;BME280;29786;50.798;7.302;2023-05-23T12:14:31;99650;;;16.11;100
44127;BME280;29786;50.798;7.302;2023-05-23T12:20:42;99660;;;15.62;100
44127;BME280;29786;50.798;7.302;2023-05-23T12:25:39;99670;;;15.94;100
44127;BME280;29786;50.798;7.302;2023-05-23T12:30:42;99670;;;15.25;100
44127;BME280;29786;50.798;7.302;2023-05-23T12:35:32;99680;;;16.56;100
44127;BME280;29786;50.798;7.302;2023-05-23T12:41:43;99680;;;17.29;100
44127;BME280;29786;50.798;7.302;2023-05-23T12:46:39;99680;;;16.43;100
44127;BME280;29786;50.798;7.302;2023-05-23T12:51:35;99690;;;16.54;100
44127;BME280;29786;50.798;7.302;2023-05-23T12:56:32;99690;;;16.28;100
44127;BME280;29786;50.798;7.302;2023-05-23T13:02:42;99700;;;16.6;94.94
44127;BME280;29786;50.798;7.302;2023-05-23T13:07:39;99690;;;15.8;95.16
44127;BME280;29786;50.798;7.302;2023-05-23T13:12:36;99700;;;15.95;92.24
44127;BME280;29786;50.798;7.302;2023-05-23T13:17:32;99690;;;15.73;95.26
44127;BME280;29786;50.798;7.302;2023-05-23T13:23:43;99690;;;15.39;99.6
44127;BME280;29786;50.798;7.302;2023-05-23T13:28:39;99700;;;15.28;99.59
44127;BME280;29786;50.798;7.302;2023-05-23T13:33:36;99700;;;15.32;100
44127;BME280;29786;50.798;7.302;2023-05-23T13:38:33;99700;;;15.59;100
44127;BME280;29786;50.798;7.302;2023-05-23T13:44:43;99710;;;16.45;88.33
44127;BME280;29786;50.798;7.302;2023-05-23T13:49:40;99710;;;16.37;89.23
44127;BME280;29786;50.798;7.302;2023-05-23T13:54:36;99690;;;16.95;82.49
44127;BME280;29786;50.798;7.302;2023-05-23T13:59:33;99710;;;16.41;88.37
44127;BME280;29786;50.798;7.302;2023-05-23T14:04:29;99710;;;15.54;94.35
44127;BME280;29786;50.798;7.302;2023-05-23T14:10:40;99700;;;16.53;90.67
44127;BME280;29786;50.798;7.302;2023-05-23T14:15:36;99670;;;21;57.31
44127;BME280;29786;50.798;7.302;2023-05-23T14:20:33;99690;;;21.06;56.12
44127;BME280;29786;50.798;7.302;2023-05-23T14:25:30;99700;;;20.65;54.86
44127;BME280;29786;50.798;7.302;2023-05-23T14:31:40;99690;;;17.92;64.49
44127;BME280;29786;50.798;7.302;2023-05-23T14:36:37;99680;;;17.26;65.25
44127;BME280;29786;50.798;7.302;2023-05-23T14:41:33;99680;;;21.2;52.55
44127;BME280;29786;50.798;7.302;2023-05-23T14:46:30;99670;;;22.01;47.55
44127;BME280;29786;50.798;7.302;2023-05-23T14:52:40;99670;;;18.41;55.68
44127;BME280;29786;50.798;7.302;2023-05-23T14:57:37;99670;;;17.44;59.51
44127;BME280;29786;50.798;7.302;2023-05-23T15:02:33;99670;;;22.25;48.23
44127;BME280;29786;50.798;7.302;2023-05-23T15:07:30;99660;;;22.18;46.72
44127;BME280;29786;50.798;7.302;2023-05-23T15:13:41;99660;;;20.03;49.8
44127;BME280;29786;50.798;7.302;2023-05-23T15:18:37;99660;;;19;55.2
44127;BME280;29786;50.798;7.302;2023-05-23T15:23:34;99650;;;21.93;46.97
44127;BME280;29786;50.798;7.302;2023-05-23T15:28:30;99660;;;19.62;51.32
44127;BME280;29786;50.798;7.302;2023-05-23T15:34:41;99660;;;18.77;54.15
44127;BME280;29786;50.798;7.302;2023-05-23T15:39:38;99650;;;18.79;54.43
44127;BME280;29786;50.798;7.302;2023-05-23T15:44:34;99640;;;19.12;52.82
44127;BME280;29786;50.798;7.302;2023-05-23T15:49:30;99650;;;19.85;49.23
44127;BME280;29786;50.798;7.302;2023-05-23T15:55:41;99650;;;20.55;47.63
44127;BME280;29786;50.798;7.302;2023-05-23T16:00:38;99650;;;18.96;49.48
44127;BME280;29786;50.798;7.302;2023-05-23T16:05:34;99650;;;17.87;53.16
44127;BME280;29786;50.798;7.302;2023-05-23T16:10:31;99650;;;20.41;48.19
44127;BME280;29786;50.798;7.302;2023-05-23T16:16:41;99650;;;20.56;45.54
44127;BME280;29786;50.798;7.302;2023-05-23T16:21:38;99650;;;19.27;48.32
44127;BME280;29786;50.798;7.302;2023-05-23T16:26:35;99660;;;17.49;53.84
44127;BME280;29786;50.798;7.302;2023-05-23T16:31:31;99660;;;17.45;55.59
44127;BME280;29786;50.798;7.302;2023-05-23T16:37:42;99660;;;17.25;55.97
44127;BME280;29786;50.798;7.302;2023-05-23T16:42:38;99650;;;16.75;56.09
44127;BME280;29786;50.798;7.302;2023-05-23T16:47:35;99640;;;18.14;54.82
44127;BME280;29786;50.798;7.302;2023-05-23T16:52:31;99640;;;18.73;50.54
44127;BME280;29786;50.798;7.302;2023-05-23T16:58:42;99650;;;17.94;54.27
44127;BME280;29786;50.798;7.302;2023-05-23T17:03:39;99640;;;17.58;55.46
44127;BME280;29786;50.798;7.302;2023-05-23T17:08:35;99650;;;17.2;55.69
44127;BME280;29786;50.798;7.302;2023-05-23T17:13:32;99640;;;17.57;54.57
44127;BME280;29786;50.798;7.302;2023-05-23T17:19:42;99630;;;19.21;49.16
44127;BME280;29786;50.798;7.302;2023-05-23T17:24:39;99640;;;17.95;51.49
44127;BME280;29786;50.798;7.302;2023-05-23T17:29:35;99640;;;16.51;55.8
44127;BME280;29786;50.798;7.302;2023-05-23T17:34:32;99650;;;15.72;59.25
44127;BME280;29786;50.798;7.302;2023-05-23T17:40:42;99660;;;15.7;59.84
44127;BME280;29786;50.798;7.302;2023-05-23T17:45:39;99650;;;15.5;61.53
44127;BME280;29786;50.798;7.302;2023-05-23T17:50:36;99660;;;15.12;61.75
44127;BME280;29786;50.798;7.302;2023-05-23T17:55:32;99660;;;15.1;61.83
44127;BME280;29786;50.798;7.302;2023-05-23T18:01:43;99670;;;15.17;62.49
44127;BME280;29786;50.798;7.302;2023-05-23T18:06:39;99670;;;15.38;61.54
44127;BME280;29786;50.798;7.302;2023-05-23T18:11:36;99670;;;15.33;59.53
44127;BME280;29786;50.798;7.302;2023-05-23T18:16:32;99670;;;15.02;59.48
44127;BME280;29786;50.798;7.302;2023-05-23T18:22:43;99670;;;14.84;61.64
44127;BME280;29786;50.798;7.302;2023-05-23T18:27:40;99690;;;14.38;62.48
44127;BME280;29786;50.798;7.302;2023-05-23T18:32:36;99670;;;14.25;64.36
44127;BME280;29786;50.798;7.302;2023-05-23T18:37:33;99680;;;14.35;64.76
44127;BME280;29786;50.798;7.302;2023-05-23T18:43:43;99690;;;14.11;67.04
44127;BME280;29786;50.798;7.302;2023-05-23T18:48:41;99690;;;13.92;70.62
44127;BME280;29786;50.798;7.302;2023-05-23T18:53:37;99680;;;13.71;71.88
44127;BME280;29786;50.798;7.302;2023-05-23T18:58:33;99710;;;13.56;72.78
44127;BME280;29786;50.798;7.302;2023-05-23T19:03:38;99710;;;13.34;75.54
44127;BME280;29786;50.798;7.302;2023-05-23T19:08:34;99710;;;13.17;76.54
44127;BME280;29786;50.798;7.302;2023-05-23T19:13:31;99720;;;13.01;78.53
44127;BME280;29786;50.798;7.302;2023-05-23T19:19:41;99730;;;12.83;82.69
44127;BME280;29786;50.798;7.302;2023-05-23T19:24:38;99740;;;12.73;83.61
44127;BME280;29786;50.798;7.302;2023-05-23T19:29:34;99740;;;12.54;86.45
44127;BME280;29786;50.798;7.302;2023-05-23T19:34:31;99750;;;12.51;87.87
44127;BME280;29786;50.798;7.302;2023-05-23T19:40:42;99750;;;12.53;90
44127;BME280;29786;50.798;7.302;2023-05-23T19:45:38;99750;;;12.56;86.03
44127;BME280;29786;50.798;7.302;2023-05-23T19:50:35;99760;;;12.52;84.32
44127;BME280;29786;50.798;7.302;2023-05-23T19:55:31;99760;;;12.47;86.61
44127;BME280;29786;50.798;7.302;2023-05-23T20:01:42;99770;;;12.47;82.06
44127;BME280;29786;50.798;7.302;2023-05-23T20:06:38;99770;;;12.38;80.55
44127;BME280;29786;50.798;7.302;2023-05-23T20:11:35;99780;;;12.34;82.18
44127;BME280;29786;50.798;7.302;2023-05-23T20:16:32;99780;;;12.33;83.15
44127;BME280;29786;50.798;7.302;2023-05-23T20:22:42;99790;;;12.25;81.94
44127;BME280;29786;50.798;7.302;2023-05-23T20:27:39;99790;;;12.03;85.97
44127;BME280;29786;50.798;7.302;2023-05-23T20:32:35;99800;;;12.08;85
44127;BME280;29786;50.798;7.302;2023-05-23T20:37:32;99800;;;11.78;86.98
44127;BME280;29786;50.798;7.302;2023-05-23T20:43:42;99800;;;11.61;88.83
44127;BME280;29786;50.798;7.302;2023-05-23T20:48:39;99800;;;11.49;89.8
44127;BME280;29786;50.798;7.302;2023-05-23T20:53:35;99820;;;11.34;91.07
44127;BME280;29786;50.798;7.302;2023-05-23T20:58:32;99820;;;11.15;93.07
44127;BME280;29786;50.798;7.302;2023-05-23T21:04:43;99830;;;11.06;92.88
44127;BME280;29786;50.798;7.302;2023-05-23T21:09:39;99830;;;10.98;96.33
44127;BME280;29786;50.798;7.302;2023-05-23T21:14:36;99830;;;10.87;98.92
44127;BME280;29786;50.798;7.302;2023-05-23T21:19:32;99840;;;10.72;100
44127;BME280;29786;50.798;7.302;2023-05-23T21:25:43;99840;;;10.6;100
44127;BME280;29786;50.798;7.302;2023-05-23T21:30:39;99840;;;10.48;100
44127;BME280;29786;50.798;7.302;2023-05-23T21:35:36;99820;;;10.32;100
44127;BME280;29786;50.798;7.302;2023-05-23T21:40:32;99840;;;10.38;100
44127;BME280;29786;50.798;7.302;2023-05-23T21:45:29;99840;;;10.18;100
44127;BME280;29786;50.798;7.302;2023-05-23T21:51:40;99830;;;10.21;100
44127;BME280;29786;50.798;7.302;2023-05-23T21:56:36;99820;;;9.97;100
44127;BME280;29786;50.798;7.302;2023-05-23T22:01:33;99840;;;9.95;100
44127;BME280;29786;50.798;7.302;2023-05-23T22:06:29;99840;;;9.89;100
44127;BME280;29786;50.798;7.302;2023-05-23T22:12:40;99840;;;9.8;100
44127;BME280;29786;50.798;7.302;2023-05-23T22:17:37;99820;;;9.66;100
44127;BME280;29786;50.798;7.302;2023-05-23T22:22:33;99850;;;9.63;100
44127;BME280;29786;50.798;7.302;2023-05-23T22:27:30;99840;;;9.64;100
44127;BME280;29786;50.798;7.302;2023-05-23T22:33:41;99840;;;9.41;100
44127;BME280;29786;50.798;7.302;2023-05-23T22:38:37;99840;;;9.47;100
44127;BME280;29786;50.798;7.302;2023-05-23T22:43:34;99840;;;9.27;100
44127;BME280;29786;50.798;7.302;2023-05-23T22:48:30;99850;;;9.21;100
44127;BME280;29786;50.798;7.302;2023-05-23T22:54:40;99850;;;9.12;100
44127;BME280;29786;50.798;7.302;2023-05-23T22:59:37;99840;;;9.09;100
44127;BME280;29786;50.798;7.302;2023-05-23T23:04:34;99840;;;8.97;100
44127;BME280;29786;50.798;7.302;2023-05-23T23:15:41;99850;;;8.99;100
44127;BME280;29786;50.798;7.302;2023-05-23T23:19:23;99850;;;8.72;100
44127;BME280;29786;50.798;7.302;2023-05-23T23:20:37;99840;;;8.81;100
44127;BME280;29786;50.798;7.302;2023-05-23T23:25:34;99850;;;8.68;100
44127;BME280;29786;50.798;7.302;2023-05-23T23:30:30;99840;;;8.63;100
44127;BME280;29786;50.798;7.302;2023-05-23T23:36:41;99850;;;8.47;100
44127;BME280;29786;50.798;7.302;2023-05-23T23:41:37;99840;;;8.32;100
44127;BME280;29786;50.798;7.302;2023-05-23T23:46:34;99840;;;8.31;100
44127;BME280;29786;50.798;7.302;2023-05-23T23:51:31;99850;;;8.35;100
44127;BME280;29786;50.798;7.302;2023-05-23T23:57:41;99850;;;8.1;100
